createdAt,value
2023-02-13T00:00:06.882Z,6.25
2023-02-13T00:02:33.499Z,6.24
2023-02-13T00:04:59.962Z,6.25
2023-02-13T00:07:26.343Z,6.22
2023-02-13T00:09:52.735Z,6.22
2023-02-13T00:12:19.224Z,6.22
2023-02-13T00:14:45.701Z,6.21
2023-02-13T00:17:12.146Z,6.20
2023-02-13T00:19:38.535Z,6.20
2023-02-13T00:22:04.887Z,6.20
2023-02-13T00:24:31.450Z,6.21
2023-02-13T00:26:57.825Z,6.22
2023-02-13T00:29:24.225Z,6.21
2023-02-13T00:31:50.857Z,6.20
2023-02-13T00:34:17.293Z,6.18
2023-02-13T00:36:46.658Z,6.20
2023-02-13T00:39:13.205Z,6.21
2023-02-13T00:41:39.951Z,6.20
2023-02-13T00:44:06.527Z,6.18
2023-02-13T00:46:33.111Z,6.17
2023-02-13T00:48:59.520Z,6.17
2023-02-13T00:51:25.909Z,6.14
2023-02-13T00:53:52.331Z,6.16
2023-02-13T00:56:18.777Z,6.14
2023-02-13T00:58:45.789Z,6.13
2023-02-13T01:01:12.313Z,6.13
2023-02-13T01:03:39.048Z,6.13
2023-02-13T01:06:06.496Z,6.13
2023-02-13T01:08:33.444Z,6.13
2023-02-13T01:11:00.497Z,6.11
2023-02-13T01:13:27.450Z,6.12
2023-02-13T01:15:53.989Z,6.11
2023-02-13T01:18:20.840Z,6.11
2023-02-13T01:21:01.048Z,6.10
2023-02-13T01:23:31.709Z,6.10
2023-02-13T01:25:58.157Z,6.10
2023-02-13T01:28:24.821Z,6.07
2023-02-13T01:30:58.566Z,6.07
2023-02-13T01:33:27.572Z,6.04
2023-02-13T01:35:54.411Z,6.06
2023-02-13T01:38:21.465Z,6.05
2023-02-13T01:40:53.401Z,6.05
2023-02-13T01:43:23.346Z,6.05
2023-02-13T01:45:56.269Z,6.04
2023-02-13T01:48:25.967Z,6.04
2023-02-13T01:51:00.834Z,6.03
2023-02-13T01:53:43.636Z,6.02
2023-02-13T01:56:28.601Z,6.02
2023-02-13T01:59:00.477Z,6.03
2023-02-13T02:01:28.390Z,6.02
2023-02-13T02:04:03.756Z,6.00
2023-02-13T02:06:36.008Z,6.01
2023-02-13T02:09:07.909Z,6.00
2023-02-13T02:11:52.285Z,6.01
2023-02-13T02:14:19.757Z,6.00
2023-02-13T02:16:46.219Z,6.01
2023-02-13T02:19:23.912Z,6.00
2023-02-13T02:22:06.580Z,6.00
2023-02-13T02:25:05.010Z,5.98
2023-02-13T02:27:37.529Z,6.00
2023-02-13T02:30:46.024Z,5.99
2023-02-13T02:33:38.898Z,5.97
2023-02-13T02:36:26.702Z,5.96
2023-02-13T02:39:18.135Z,5.96
2023-02-13T02:41:59.723Z,5.98
2023-02-13T02:44:45.642Z,5.98
2023-02-13T02:47:55.969Z,5.98
2023-02-13T02:50:34.351Z,6.00
2023-02-13T02:53:14.235Z,5.99
2023-02-13T02:56:02.648Z,5.98
2023-02-13T02:59:11.207Z,5.98
2023-02-13T03:01:57.893Z,5.96
2023-02-13T03:04:58.038Z,5.92
2023-02-13T03:07:24.668Z,5.92
2023-02-13T03:10:22.699Z,5.93
2023-02-13T03:13:36.989Z,5.94
2023-02-13T03:16:22.907Z,5.92
2023-02-13T03:19:16.205Z,5.94
2023-02-13T03:22:08.926Z,5.99
2023-02-13T03:24:59.594Z,5.96
2023-02-13T03:28:02.647Z,5.95
2023-02-13T03:31:03.120Z,5.97
2023-02-13T03:33:38.194Z,5.94
2023-02-13T03:36:35.833Z,5.93
2023-02-13T03:39:11.135Z,5.90
2023-02-13T03:41:42.904Z,5.90
2023-02-13T03:44:27.789Z,5.90
2023-02-13T03:46:58.560Z,5.90
2023-02-13T03:49:49.653Z,5.91
2023-02-13T03:52:29.468Z,5.92
2023-02-13T03:55:23.505Z,5.89
2023-02-13T03:58:11.742Z,5.88
2023-02-13T04:00:42.909Z,5.87
2023-02-13T04:03:31.164Z,5.88
2023-02-13T04:06:10.983Z,5.88
2023-02-13T04:08:37.685Z,5.88
2023-02-13T04:11:13.914Z,5.87
2023-02-13T04:13:57.701Z,5.85
2023-02-13T04:16:35.612Z,5.86
2023-02-13T04:19:03.655Z,5.86
2023-02-13T04:21:36.727Z,5.88
2023-02-13T04:24:03.510Z,5.90
2023-02-13T04:26:36.543Z,5.88
2023-02-13T04:29:03.467Z,5.88
2023-02-13T04:31:30.063Z,5.89
2023-02-13T04:33:56.967Z,5.88
2023-02-13T04:36:23.514Z,5.89
2023-02-13T04:38:50.774Z,5.86
2023-02-13T04:41:17.408Z,5.87
2023-02-13T04:43:44.993Z,5.86
2023-02-13T04:46:11.622Z,5.87
2023-02-13T04:48:38.955Z,5.86
2023-02-13T04:51:05.744Z,5.86
2023-02-13T04:53:32.473Z,5.86
2023-02-13T04:55:58.873Z,5.86
2023-02-13T04:58:25.371Z,5.86
2023-02-13T05:00:51.742Z,5.85
2023-02-13T05:03:18.355Z,5.85
2023-02-13T05:05:44.755Z,5.85
2023-02-13T05:08:11.506Z,5.83
2023-02-13T05:10:37.878Z,5.84
2023-02-13T05:13:04.340Z,5.84
2023-02-13T05:15:30.859Z,5.85
2023-02-13T05:17:57.511Z,5.83
2023-02-13T05:20:23.969Z,5.82
2023-02-13T05:23:11.458Z,5.80
2023-02-13T05:25:40.547Z,5.80
2023-02-13T05:28:26.561Z,5.80
2023-02-13T05:30:53.294Z,5.80
2023-02-13T05:33:19.754Z,5.81
2023-02-13T05:35:46.165Z,5.82
2023-02-13T05:38:12.566Z,5.79
2023-02-13T05:40:39.036Z,5.77
2023-02-13T05:43:05.562Z,5.79
2023-02-13T05:45:31.997Z,5.79
2023-02-13T05:47:58.426Z,5.81
2023-02-13T05:50:24.818Z,5.81
2023-02-13T05:52:51.194Z,5.80
2023-02-13T05:55:17.623Z,5.81
2023-02-13T05:57:44.134Z,5.82
2023-02-13T06:00:11.033Z,5.82
2023-02-13T06:02:37.422Z,5.83
2023-02-13T06:05:04.060Z,5.82
2023-02-13T06:07:30.448Z,5.81
2023-02-13T06:09:59.488Z,5.80
2023-02-13T06:12:25.823Z,5.80
2023-02-13T06:14:52.225Z,5.83
2023-02-13T06:17:18.652Z,5.84
2023-02-13T06:19:45.092Z,5.85
2023-02-13T06:22:11.449Z,5.85
2023-02-13T06:24:37.929Z,5.86
2023-02-13T06:27:04.293Z,5.87
2023-02-13T06:29:32.939Z,5.88
2023-02-13T06:31:59.747Z,5.88
2023-02-13T06:34:26.284Z,5.87
2023-02-13T06:36:52.806Z,5.87
2023-02-13T06:39:19.318Z,5.87
2023-02-13T06:41:45.814Z,5.85
2023-02-13T06:44:12.235Z,5.85
2023-02-13T06:46:38.683Z,5.85
2023-02-13T06:49:05.381Z,5.87
2023-02-13T06:51:31.777Z,5.87
2023-02-13T06:53:58.177Z,5.86
2023-02-13T06:56:26.364Z,5.88
2023-02-13T06:58:52.853Z,5.88
2023-02-13T07:01:19.328Z,5.86
2023-02-13T07:03:47.051Z,5.86
2023-02-13T07:06:20.781Z,5.86
2023-02-13T07:08:47.495Z,5.87
2023-02-13T07:11:20.696Z,5.88
2023-02-13T07:13:47.215Z,5.88
2023-02-13T07:16:13.725Z,5.90
2023-02-13T07:18:40.253Z,5.89
2023-02-13T07:21:07.455Z,5.92
2023-02-13T07:23:34.032Z,5.92
2023-02-13T07:26:01.309Z,5.94
2023-02-13T07:28:29.336Z,5.97
2023-02-13T07:30:56.585Z,5.97
2023-02-13T07:33:24.833Z,5.99
2023-02-13T07:35:52.401Z,6.03
2023-02-13T07:38:19.129Z,6.03
2023-02-13T07:40:45.611Z,6.05
2023-02-13T07:43:13.324Z,6.06
2023-02-13T07:45:39.871Z,6.09
2023-02-13T07:48:06.607Z,6.11
2023-02-13T07:50:33.312Z,6.15
2023-02-13T07:53:02.169Z,6.17
2023-02-13T07:55:30.047Z,6.21
2023-02-13T07:57:56.999Z,6.23
2023-02-13T08:00:23.489Z,6.27
2023-02-13T08:02:49.945Z,6.32
2023-02-13T08:05:16.499Z,6.36
2023-02-13T08:07:42.920Z,6.41
2023-02-13T08:10:31.178Z,6.45
2023-02-13T08:12:58.008Z,6.52
2023-02-13T08:15:24.400Z,6.54
2023-02-13T08:17:50.828Z,6.57
2023-02-13T08:20:17.441Z,6.62
2023-02-13T08:22:43.989Z,6.67
2023-02-13T08:25:10.835Z,6.73
2023-02-13T08:27:38.115Z,6.76
2023-02-13T08:30:05.641Z,6.82
2023-02-13T08:32:39.509Z,6.89
2023-02-13T08:35:18.513Z,6.98
2023-02-13T08:37:46.630Z,7.02
2023-02-13T08:40:14.270Z,7.07
2023-02-13T08:42:40.702Z,7.10
2023-02-13T08:45:07.522Z,7.15
2023-02-13T08:47:34.023Z,7.21
2023-02-13T08:50:00.492Z,7.28
2023-02-13T08:52:29.982Z,7.32
2023-02-13T08:54:56.571Z,7.43
2023-02-13T08:57:22.968Z,7.51
2023-02-13T08:59:49.457Z,7.60
2023-02-13T09:02:15.956Z,7.67
2023-02-13T09:04:42.457Z,7.77
2023-02-13T09:07:09.127Z,7.88
2023-02-13T09:09:35.508Z,8.31
2023-02-13T09:12:01.865Z,8.45
2023-02-13T09:14:28.342Z,8.33
2023-02-13T09:16:54.827Z,8.26
2023-02-13T09:19:21.315Z,8.32
2023-02-13T09:21:47.923Z,8.37
2023-02-13T09:24:14.332Z,8.43
2023-02-13T09:26:40.753Z,8.34
2023-02-13T09:29:07.227Z,8.37
2023-02-13T09:31:33.799Z,8.31
2023-02-13T09:34:00.221Z,8.46
2023-02-13T09:36:26.783Z,8.57
2023-02-13T09:38:55.323Z,8.63
2023-02-13T09:41:42.076Z,8.63
2023-02-13T09:44:34.108Z,8.59
2023-02-13T09:47:51.399Z,8.79
2023-02-13T09:50:31.518Z,9.14
2023-02-13T09:52:59.700Z,9.33
2023-02-13T09:55:37.393Z,9.24
2023-02-13T09:58:16.602Z,9.28
2023-02-13T10:00:47.837Z,9.42
2023-02-13T10:03:19.933Z,9.39
2023-02-13T10:06:11.426Z,9.39
2023-02-13T10:09:01.869Z,9.25
2023-02-13T10:11:48.420Z,9.40
2023-02-13T10:14:24.626Z,9.40
2023-02-13T10:16:58.538Z,9.49
2023-02-13T10:19:46.775Z,9.65
2023-02-13T10:22:15.584Z,9.51
2023-02-13T10:24:54.717Z,9.59
2023-02-13T10:27:25.429Z,9.74
2023-02-13T10:30:12.402Z,9.94
2023-02-13T10:33:11.179Z,9.92
2023-02-13T10:35:38.869Z,10.07
2023-02-13T10:38:20.441Z,10.10
2023-02-13T10:41:02.829Z,9.97
2023-02-13T10:43:33.045Z,10.02
2023-02-13T10:46:05.452Z,10.18
2023-02-13T10:48:37.282Z,10.19
2023-02-13T10:51:27.055Z,10.25
2023-02-13T10:54:20.827Z,10.26
2023-02-13T10:56:54.864Z,10.11
2023-02-13T10:59:35.427Z,9.84
2023-02-13T11:02:03.755Z,9.96
2023-02-13T11:04:30.333Z,10.05
2023-02-13T11:07:02.096Z,10.04
2023-02-13T11:09:31.372Z,10.11
2023-02-13T11:11:57.754Z,10.21
2023-02-13T11:14:26.446Z,10.32
2023-02-13T11:17:07.347Z,10.30
2023-02-13T11:19:35.658Z,10.30
2023-02-13T11:22:06.426Z,10.29
2023-02-13T11:24:33.841Z,10.37
2023-02-13T11:27:09.357Z,10.47
2023-02-13T11:29:37.583Z,10.33
2023-02-13T11:32:19.455Z,10.29
2023-02-13T11:34:47.437Z,10.40
2023-02-13T11:37:15.309Z,10.49
2023-02-13T11:39:43.379Z,10.57
2023-02-13T11:42:33.528Z,10.61
2023-02-13T11:45:08.253Z,10.22
2023-02-13T11:47:40.908Z,10.05
2023-02-13T11:50:27.907Z,10.16
2023-02-13T11:53:09.010Z,10.17
2023-02-13T11:55:42.668Z,10.17
2023-02-13T11:58:12.158Z,10.04
2023-02-13T12:00:41.296Z,10.10
2023-02-13T12:03:30.917Z,10.25
2023-02-13T12:06:15.581Z,10.37
2023-02-13T12:08:45.952Z,10.38
2023-02-13T12:11:38.976Z,10.38
2023-02-13T12:14:05.933Z,10.36
2023-02-13T12:16:41.203Z,10.39
2023-02-13T12:19:20.203Z,10.39
2023-02-13T12:22:15.042Z,10.41
2023-02-13T12:25:21.235Z,10.50
2023-02-13T12:27:57.170Z,10.54
2023-02-13T12:31:01.295Z,10.54
2023-02-13T12:33:34.018Z,10.63
2023-02-13T12:36:14.590Z,10.64
2023-02-13T12:38:57.124Z,10.67
2023-02-13T12:41:36.311Z,10.69
2023-02-13T12:44:24.394Z,10.73
2023-02-13T12:47:22.063Z,10.71
2023-02-13T12:50:23.825Z,10.75
2023-02-13T12:53:58.314Z,10.75
2023-02-13T12:56:40.474Z,10.76
2023-02-13T12:59:11.707Z,10.75
2023-02-13T13:01:54.089Z,10.73
2023-02-13T13:04:26.267Z,10.74
2023-02-13T13:07:01.511Z,10.81
2023-02-13T13:09:39.673Z,10.80
2023-02-13T13:12:22.099Z,10.88
2023-02-13T13:15:31.761Z,10.86
2023-02-13T13:18:16.106Z,10.80
2023-02-13T13:21:00.344Z,10.84
2023-02-13T13:23:36.884Z,10.89
2023-02-13T13:26:26.245Z,10.88
2023-02-13T13:28:56.435Z,10.86
2023-02-13T13:31:26.563Z,10.87
2023-02-13T13:33:55.639Z,10.81
2023-02-13T13:36:33.111Z,10.79
2023-02-13T13:39:21.707Z,10.77
2023-02-13T13:42:02.324Z,10.75
2023-02-13T13:44:53.794Z,10.76
2023-02-13T13:47:49.068Z,10.75
2023-02-13T13:50:24.616Z,10.76
2023-02-13T13:53:15.548Z,10.75
2023-02-13T13:55:51.625Z,10.74
2023-02-13T13:58:33.421Z,10.76
2023-02-13T14:01:23.018Z,10.82
2023-02-13T14:04:04.747Z,10.85
2023-02-13T14:06:43.475Z,10.83
2023-02-13T14:09:37.775Z,10.83
2023-02-13T14:12:46.896Z,10.81
2023-02-13T14:15:34.873Z,10.79
2023-02-13T14:18:14.483Z,10.78
2023-02-13T14:20:52.523Z,10.71
2023-02-13T14:23:50.192Z,10.69
2023-02-13T14:26:16.662Z,10.71
2023-02-13T14:28:56.657Z,10.74
2023-02-13T14:31:33.309Z,10.72
2023-02-13T14:34:03.919Z,10.68
2023-02-13T14:36:34.002Z,10.68
2023-02-13T14:39:04.953Z,10.68
2023-02-13T14:42:23.651Z,10.64
2023-02-13T14:44:52.910Z,10.63
2023-02-13T14:47:29.104Z,10.63
2023-02-13T14:49:56.445Z,10.63
2023-02-13T14:52:27.600Z,10.67
2023-02-13T14:54:59.993Z,10.65
2023-02-13T14:57:29.848Z,10.63
2023-02-13T15:00:01.172Z,10.60
2023-02-13T15:02:35.887Z,10.57
2023-02-13T15:05:07.298Z,10.58
2023-02-13T15:07:46.703Z,10.54
2023-02-13T15:10:45.237Z,10.53
2023-02-13T15:13:18.368Z,10.49
2023-02-13T15:15:58.820Z,10.48
2023-02-13T15:18:29.273Z,10.48
2023-02-13T15:21:02.307Z,10.46
2023-02-13T15:23:38.928Z,10.47
2023-02-13T15:26:07.406Z,10.47
2023-02-13T15:28:35.586Z,10.42
2023-02-13T15:31:20.146Z,10.40
2023-02-13T15:33:48.832Z,10.35
2023-02-13T15:36:28.389Z,10.35
2023-02-13T15:39:09.703Z,10.29
2023-02-13T15:41:43.668Z,10.25
2023-02-13T15:44:18.264Z,10.24
2023-02-13T15:46:48.168Z,10.22
2023-02-13T15:49:17.838Z,10.20
2023-02-13T15:51:44.923Z,10.20
2023-02-13T15:54:27.115Z,10.15
2023-02-13T15:56:56.973Z,10.12
2023-02-13T15:59:27.629Z,10.05
2023-02-13T16:01:54.569Z,10.03
2023-02-13T16:04:21.707Z,9.98
2023-02-13T16:06:50.588Z,9.94
2023-02-13T16:09:35.727Z,9.87
2023-02-13T16:12:14.441Z,9.77
2023-02-13T16:14:49.844Z,9.69
2023-02-13T16:17:23.738Z,9.60
2023-02-13T16:19:58.731Z,9.52
2023-02-13T16:22:34.011Z,9.43
2023-02-13T16:25:18.553Z,9.33
2023-02-13T16:27:56.962Z,9.18
2023-02-13T16:30:25.367Z,9.13
2023-02-13T16:32:52.017Z,9.06
2023-02-13T16:35:18.405Z,9.01
2023-02-13T16:37:56.418Z,8.90
2023-02-13T16:40:32.793Z,8.84
2023-02-13T16:43:34.722Z,8.80
2023-02-13T16:46:26.333Z,8.67
2023-02-13T16:48:59.156Z,8.57
2023-02-13T16:51:42.066Z,8.46
2023-02-13T16:54:11.359Z,8.37
2023-02-13T16:56:39.532Z,8.31
2023-02-13T16:59:33.707Z,8.21
2023-02-13T17:02:23.429Z,8.12
2023-02-13T17:04:51.345Z,8.09
2023-02-13T17:07:33.744Z,8.02
2023-02-13T17:10:03.726Z,7.91
2023-02-13T17:12:33.826Z,7.83
2023-02-13T17:15:00.473Z,7.77
2023-02-13T17:17:29.704Z,7.68
2023-02-13T17:19:56.646Z,7.61
2023-02-13T17:22:34.431Z,7.51
2023-02-13T17:25:03.560Z,7.47
2023-02-13T17:27:30.349Z,7.38
2023-02-13T17:29:56.786Z,7.31
2023-02-13T17:32:25.985Z,7.27
2023-02-13T17:34:52.740Z,7.22
2023-02-13T17:37:23.562Z,7.16
2023-02-13T17:39:50.821Z,7.11
2023-02-13T17:42:21.879Z,7.04
2023-02-13T17:44:48.965Z,6.99
2023-02-13T17:47:15.757Z,6.92
2023-02-13T17:49:42.250Z,6.87
2023-02-13T17:52:14.062Z,6.81
2023-02-13T17:54:40.635Z,6.79
2023-02-13T17:57:07.213Z,6.77
2023-02-13T17:59:33.614Z,6.71
2023-02-13T18:02:00.126Z,6.64
2023-02-13T18:04:26.544Z,6.56
2023-02-13T18:06:53.586Z,6.51
2023-02-13T18:09:20.770Z,6.47
2023-02-13T18:12:04.628Z,6.41
2023-02-13T18:14:32.428Z,6.35
2023-02-13T18:16:58.897Z,6.29
2023-02-13T18:19:26.171Z,6.24
2023-02-13T18:21:52.957Z,6.17
2023-02-13T18:24:19.477Z,6.11
2023-02-13T18:26:45.994Z,6.05
2023-02-13T18:29:12.511Z,6.03
2023-02-13T18:31:40.059Z,5.97
2023-02-13T18:34:06.664Z,5.90
2023-02-13T18:36:33.166Z,5.88
2023-02-13T18:38:59.588Z,5.82
2023-02-13T18:41:26.114Z,5.77
2023-02-13T18:43:52.512Z,5.71
2023-02-13T18:46:19.015Z,5.67
2023-02-13T18:48:45.475Z,5.67
2023-02-13T18:51:11.840Z,5.61
2023-02-13T18:53:38.203Z,5.56
2023-02-13T18:56:07.478Z,5.55
2023-02-13T18:58:34.516Z,5.52
2023-02-13T19:01:14.038Z,5.47
2023-02-13T19:03:40.929Z,5.42
2023-02-13T19:06:09.649Z,5.35
2023-02-13T19:08:36.806Z,5.28
2023-02-13T19:11:05.663Z,5.21
2023-02-13T19:13:33.032Z,5.16
2023-02-13T19:16:11.634Z,5.09
2023-02-13T19:18:43.508Z,5.04
2023-02-13T19:21:10.027Z,4.98
2023-02-13T19:23:38.017Z,4.94
2023-02-13T19:26:08.736Z,4.89
2023-02-13T19:28:35.574Z,4.82
2023-02-13T19:31:06.422Z,4.78
2023-02-13T19:33:34.420Z,4.74
2023-02-13T19:36:06.443Z,4.70
2023-02-13T19:38:32.916Z,4.69
2023-02-13T19:41:04.620Z,4.66
2023-02-13T19:43:31.495Z,4.64
2023-02-13T19:46:01.812Z,4.58
2023-02-13T19:48:28.430Z,4.54
2023-02-13T19:50:54.863Z,4.49
2023-02-13T19:53:21.363Z,4.45
2023-02-13T19:55:47.882Z,4.43
2023-02-13T19:58:14.288Z,4.39
2023-02-13T20:00:40.896Z,4.33
2023-02-13T20:03:07.455Z,4.31
2023-02-13T20:05:42.867Z,4.28
2023-02-13T20:08:09.973Z,4.26
2023-02-13T20:10:36.548Z,4.23
2023-02-13T20:13:04.135Z,4.18
2023-02-13T20:15:32.423Z,4.12
2023-02-13T20:17:59.004Z,4.10
2023-02-13T20:20:27.793Z,4.06
2023-02-13T20:22:54.205Z,3.99
2023-02-13T20:25:22.093Z,3.97
2023-02-13T20:27:48.588Z,3.91
2023-02-13T20:30:15.988Z,3.87
2023-02-13T20:32:43.874Z,3.87
2023-02-13T20:35:10.472Z,3.87
2023-02-13T20:37:36.937Z,3.86
2023-02-13T20:40:03.775Z,3.82
2023-02-13T20:42:33.347Z,3.74
2023-02-13T20:45:00.208Z,3.72
2023-02-13T20:47:26.668Z,3.69
2023-02-13T20:49:53.178Z,3.70
2023-02-13T20:52:19.743Z,3.66
2023-02-13T20:54:47.359Z,3.60
2023-02-13T20:57:15.587Z,3.58
2023-02-13T20:59:43.687Z,3.52
2023-02-13T21:02:11.949Z,3.48
2023-02-13T21:04:38.393Z,3.48
2023-02-13T21:07:09.167Z,3.45
2023-02-13T21:09:37.030Z,3.42
2023-02-13T21:12:04.741Z,3.40
2023-02-13T21:14:31.372Z,3.37
2023-02-13T21:16:57.878Z,3.33
2023-02-13T21:19:24.379Z,3.25
2023-02-13T21:21:50.914Z,3.23
2023-02-13T21:24:21.166Z,3.19
2023-02-13T21:26:49.832Z,3.19
2023-02-13T21:29:16.357Z,3.14
2023-02-13T21:31:47.677Z,3.09
2023-02-13T21:34:15.331Z,3.05
2023-02-13T21:36:41.831Z,3.04
2023-02-13T21:39:10.247Z,3.01
2023-02-13T21:41:39.200Z,3.01
2023-02-13T21:44:05.831Z,2.96
2023-02-13T21:46:33.378Z,2.93
2023-02-13T21:49:05.448Z,2.86
2023-02-13T21:51:34.056Z,2.85
2023-02-13T21:54:01.272Z,2.81
2023-02-13T21:56:33.950Z,2.76
2023-02-13T21:59:00.722Z,2.70
2023-02-13T22:01:29.653Z,2.68
2023-02-13T22:04:00.538Z,2.64
2023-02-13T22:06:29.528Z,2.66
2023-02-13T22:09:07.762Z,2.68
2023-02-13T22:11:35.180Z,2.62
2023-02-13T22:14:04.259Z,2.59
2023-02-13T22:16:32.888Z,2.57
2023-02-13T22:19:00.363Z,2.55
2023-02-13T22:21:28.712Z,2.53
2023-02-13T22:23:55.706Z,2.47
2023-02-13T22:26:23.532Z,2.44
2023-02-13T22:28:51.080Z,2.40
2023-02-13T22:31:18.605Z,2.39
2023-02-13T22:33:52.390Z,2.34
2023-02-13T22:36:25.804Z,2.32
2023-02-13T22:38:52.717Z,2.29
2023-02-13T22:41:22.511Z,2.24
2023-02-13T22:43:49.907Z,2.24
2023-02-13T22:46:22.522Z,2.20
2023-02-13T22:48:52.021Z,2.16
2023-02-13T22:51:22.825Z,2.18
2023-02-13T22:53:51.912Z,2.11
2023-02-13T22:56:18.294Z,2.07
2023-02-13T22:58:44.659Z,2.04
2023-02-13T23:01:19.457Z,2.01
2023-02-13T23:03:46.188Z,1.99
2023-02-13T23:06:14.178Z,1.96
2023-02-13T23:08:41.360Z,1.93
2023-02-13T23:11:30.088Z,1.93
2023-02-13T23:13:56.632Z,1.87
2023-02-13T23:16:23.436Z,1.85
2023-02-13T23:18:54.868Z,1.80
2023-02-13T23:21:22.059Z,1.79
2023-02-13T23:23:48.795Z,1.79
2023-02-13T23:26:15.764Z,1.74
2023-02-13T23:28:42.492Z,1.72
2023-02-13T23:31:09.031Z,1.71
2023-02-13T23:33:35.681Z,1.68
2023-02-13T23:36:02.300Z,1.64
2023-02-13T23:38:28.784Z,1.60
2023-02-13T23:40:55.287Z,1.56
2023-02-13T23:43:21.778Z,1.52
2023-02-13T23:45:48.305Z,1.52
2023-02-13T23:48:14.859Z,1.49
2023-02-13T23:50:41.387Z,1.49
2023-02-13T23:53:07.873Z,1.46
2023-02-13T23:55:34.347Z,1.42
2023-02-13T23:58:00.995Z,1.40
